createdAt,value
2018-08-04T00:00:40.734Z,1012.50
2018-08-04T00:01:40.728Z,1012.50
2018-08-04T00:02:40.728Z,1012.49
2018-08-04T00:03:40.730Z,1012.48
2018-08-04T00:04:40.730Z,1012.47
2018-08-04T00:05:40.735Z,1012.49
2018-08-04T00:06:40.732Z,1012.49
2018-08-04T00:07:40.736Z,1012.49
2018-08-04T00:08:40.738Z,1012.50
2018-08-04T00:09:40.736Z,1012.53
2018-08-04T00:10:40.741Z,1012.50
2018-08-04T00:11:40.740Z,1012.54
2018-08-04T00:12:40.743Z,1012.51
2018-08-04T00:13:40.737Z,1012.52
2018-08-04T00:14:40.745Z,1012.51
2018-08-04T00:15:40.743Z,1012.50
2018-08-04T00:16:40.737Z,1012.52
2018-08-04T00:17:40.738Z,1012.52
2018-08-04T00:18:40.746Z,1012.53
2018-08-04T00:19:40.740Z,1012.53
2018-08-04T00:20:40.740Z,1012.58
2018-08-04T00:21:40.745Z,1012.58
2018-08-04T00:22:40.744Z,1012.62
2018-08-04T00:23:40.742Z,1012.59
2018-08-04T00:24:40.749Z,1012.59
2018-08-04T00:25:40.746Z,1012.57
2018-08-04T00:26:40.742Z,1012.60
2018-08-04T00:27:40.753Z,1012.58
2018-08-04T00:28:40.744Z,1012.64
2018-08-04T00:29:40.741Z,1012.59
2018-08-04T00:30:40.749Z,1012.56
2018-08-04T00:31:40.746Z,1012.56
2018-08-04T00:32:40.744Z,1012.57
2018-08-04T00:33:40.744Z,1012.58
2018-08-04T00:34:40.742Z,1012.61
2018-08-04T00:35:40.761Z,1012.58
2018-08-04T00:36:40.745Z,1012.61
2018-08-04T00:37:40.747Z,1012.61
2018-08-04T00:38:40.741Z,1012.59
2018-08-04T00:39:40.758Z,1012.58
2018-08-04T00:40:40.753Z,1012.58
2018-08-04T00:41:40.749Z,1012.52
2018-08-04T00:42:40.747Z,1012.56
2018-08-04T00:43:40.753Z,1012.55
2018-08-04T00:44:40.751Z,1012.57
2018-08-04T00:45:40.752Z,1012.56
2018-08-04T00:46:40.748Z,1012.58
2018-08-04T00:47:40.750Z,1012.53
2018-08-04T00:48:40.750Z,1012.57
2018-08-04T00:49:40.749Z,1012.58
2018-08-04T00:50:40.748Z,1012.58
2018-08-04T00:51:40.749Z,1012.57
2018-08-04T00:52:40.749Z,1012.57
2018-08-04T00:53:40.751Z,1012.55
2018-08-04T00:54:40.756Z,1012.58
2018-08-04T00:55:40.761Z,1012.49
2018-08-04T00:56:40.750Z,1012.52
2018-08-04T00:57:40.754Z,1012.47
2018-08-04T00:58:40.751Z,1012.50
2018-08-04T00:59:40.755Z,1012.44
2018-08-04T01:00:40.749Z,1012.46
2018-08-04T01:01:40.751Z,1012.43
2018-08-04T01:02:40.752Z,1012.44
2018-08-04T01:03:40.756Z,1012.48
2018-08-04T01:04:40.744Z,1012.49
2018-08-04T01:05:40.748Z,1012.48
2018-08-04T01:06:40.749Z,1012.52
2018-08-04T01:07:40.749Z,1012.53
2018-08-04T01:08:40.747Z,1012.54
2018-08-04T01:09:40.752Z,1012.56
2018-08-04T01:10:40.753Z,1012.57
2018-08-04T01:11:40.762Z,1012.56
2018-08-04T01:12:40.753Z,1012.56
2018-08-04T01:13:40.753Z,1012.57
2018-08-04T01:14:40.749Z,1012.58
2018-08-04T01:15:40.755Z,1012.58
2018-08-04T01:16:40.753Z,1012.62
2018-08-04T01:17:40.755Z,1012.65
2018-08-04T01:18:40.751Z,1012.64
2018-08-04T01:19:40.754Z,1012.62
2018-08-04T01:20:40.747Z,1012.60
2018-08-04T01:21:40.748Z,1012.60
2018-08-04T01:22:40.751Z,1012.57
2018-08-04T01:23:40.750Z,1012.60
2018-08-04T01:24:40.763Z,1012.60
2018-08-04T01:25:40.749Z,1012.60
2018-08-04T01:26:40.752Z,1012.58
2018-08-04T01:27:40.752Z,1012.60
2018-08-04T01:28:40.753Z,1012.61
2018-08-04T01:29:40.749Z,1012.62
2018-08-04T01:30:40.756Z,1012.63
2018-08-04T01:31:40.752Z,1012.60
2018-08-04T01:32:40.752Z,1012.59
2018-08-04T01:33:40.754Z,1012.58
2018-08-04T01:34:40.754Z,1012.62
2018-08-04T01:35:40.751Z,1012.53
2018-08-04T01:36:40.757Z,1012.55
2018-08-04T01:37:40.752Z,1012.53
2018-08-04T01:38:40.750Z,1012.50
2018-08-04T01:39:40.751Z,1012.55
2018-08-04T01:40:40.757Z,1012.51
2018-08-04T01:41:40.754Z,1012.51
2018-08-04T01:42:40.752Z,1012.55
2018-08-04T01:43:40.759Z,1012.53
2018-08-04T01:44:40.755Z,1012.54
2018-08-04T01:45:40.755Z,1012.51
2018-08-04T01:46:40.748Z,1012.53
2018-08-04T01:47:40.753Z,1012.50
2018-08-04T01:48:40.751Z,1012.51
2018-08-04T01:49:40.751Z,1012.47
2018-08-04T01:50:40.751Z,1012.49
2018-08-04T01:51:40.749Z,1012.46
2018-08-04T01:52:40.755Z,1012.45
2018-08-04T01:53:40.774Z,1012.42
2018-08-04T01:54:40.747Z,1012.44
2018-08-04T01:55:40.753Z,1012.44
2018-08-04T01:56:40.754Z,1012.38
2018-08-04T01:57:40.750Z,1012.41
2018-08-04T01:58:40.751Z,1012.40
2018-08-04T01:59:40.751Z,1012.35
2018-08-04T02:00:40.760Z,1012.36
2018-08-04T02:01:40.751Z,1012.36
2018-08-04T02:02:40.750Z,1012.36
2018-08-04T02:03:40.753Z,1012.35
2018-08-04T02:04:40.751Z,1012.35
2018-08-04T02:05:40.745Z,1012.35
2018-08-04T02:06:40.747Z,1012.33
2018-08-04T02:07:40.749Z,1012.32
2018-08-04T02:08:40.748Z,1012.29
2018-08-04T02:09:40.752Z,1012.29
2018-08-04T02:10:40.748Z,1012.29
2018-08-04T02:11:40.774Z,1012.26
2018-08-04T02:12:40.749Z,1012.25
2018-08-04T02:13:40.748Z,1012.29
2018-08-04T02:14:40.744Z,1012.27
2018-08-04T02:15:40.752Z,1012.30
2018-08-04T02:16:40.747Z,1012.30
2018-08-04T02:17:40.745Z,1012.32
2018-08-04T02:18:40.748Z,1012.32
2018-08-04T02:19:40.747Z,1012.30
2018-08-04T02:20:40.745Z,1012.29
2018-08-04T02:21:40.740Z,1012.31
2018-08-04T02:22:40.741Z,1012.30
2018-08-04T02:23:40.741Z,1012.28
2018-08-04T02:24:40.745Z,1012.26
2018-08-04T02:25:40.758Z,1012.27
2018-08-04T02:26:40.742Z,1012.26
2018-08-04T02:27:40.741Z,1012.25
2018-08-04T02:28:40.742Z,1012.19
2018-08-04T02:29:40.744Z,1012.24
2018-08-04T02:30:40.743Z,1012.24
2018-08-04T02:31:40.742Z,1012.27
2018-08-04T02:32:40.745Z,1012.27
2018-08-04T02:33:40.742Z,1012.27
2018-08-04T02:34:40.741Z,1012.28
2018-08-04T02:35:40.739Z,1012.26
2018-08-04T02:36:40.744Z,1012.26
2018-08-04T02:37:40.740Z,1012.25
2018-08-04T02:38:40.741Z,1012.25
2018-08-04T02:39:40.742Z,1012.21
2018-08-04T02:40:40.750Z,1012.20
2018-08-04T02:41:40.754Z,1012.19
2018-08-04T02:42:40.748Z,1012.20
2018-08-04T02:43:40.745Z,1012.20
2018-08-04T02:44:40.749Z,1012.22
2018-08-04T02:45:40.765Z,1012.23
2018-08-04T02:46:40.743Z,1012.21
2018-08-04T02:47:40.740Z,1012.22
2018-08-04T02:48:40.737Z,1012.21
2018-08-04T02:49:40.737Z,1012.19
2018-08-04T02:50:40.735Z,1012.19
2018-08-04T02:51:40.735Z,1012.21
2018-08-04T02:52:40.732Z,1012.20
2018-08-04T02:53:40.731Z,1012.16
2018-08-04T02:54:40.730Z,1012.16
2018-08-04T02:55:40.755Z,1012.20
2018-08-04T02:56:40.782Z,1012.14
2018-08-04T02:57:40.733Z,1012.16
2018-08-04T02:58:40.747Z,1012.15
2018-08-04T02:59:40.754Z,1012.12
2018-08-04T03:00:40.732Z,1012.12
2018-08-04T03:01:40.734Z,1012.10
2018-08-04T03:02:40.739Z,1012.10
2018-08-04T03:03:40.731Z,1012.08
2018-08-04T03:04:40.726Z,1012.11
2018-08-04T03:05:40.736Z,1012.13
2018-08-04T03:06:40.723Z,1012.15
2018-08-04T03:07:40.734Z,1012.13
2018-08-04T03:09:40.744Z,1012.12
2018-08-04T03:10:40.729Z,1012.10
2018-08-04T03:11:40.732Z,1012.08
2018-08-04T03:12:40.727Z,1012.08
2018-08-04T03:13:40.727Z,1012.06
2018-08-04T03:14:40.725Z,1012.07
2018-08-04T03:15:40.728Z,1012.07
2018-08-04T03:16:40.727Z,1012.05
2018-08-04T03:17:40.724Z,1012.02
2018-08-04T03:18:40.723Z,1012.03
2018-08-04T03:19:40.722Z,1012.01
2018-08-04T03:20:40.722Z,1012.01
2018-08-04T03:21:40.719Z,1011.98
2018-08-04T03:22:40.720Z,1012.00
2018-08-04T03:23:40.732Z,1011.99
2018-08-04T03:24:40.719Z,1011.99
2018-08-04T03:25:40.720Z,1011.97
2018-08-04T03:26:40.722Z,1011.94
2018-08-04T03:27:40.719Z,1011.95
2018-08-04T03:28:40.719Z,1011.95
2018-08-04T03:29:40.716Z,1011.91
2018-08-04T03:30:40.714Z,1011.94
2018-08-04T03:31:40.718Z,1012.00
2018-08-04T03:32:40.708Z,1011.97
2018-08-04T03:33:40.713Z,1011.97
2018-08-04T03:34:40.713Z,1012.02
2018-08-04T03:35:40.725Z,1012.01
2018-08-04T03:36:40.719Z,1012.03
2018-08-04T03:37:40.714Z,1012.01
2018-08-04T03:38:40.712Z,1012.05
2018-08-04T03:39:40.712Z,1012.03
2018-08-04T03:40:40.709Z,1012.03
2018-08-04T03:41:40.719Z,1012.01
2018-08-04T03:42:40.704Z,1012.03
2018-08-04T03:43:40.714Z,1011.97
2018-08-04T03:44:40.710Z,1011.93
2018-08-04T03:45:40.706Z,1011.94
2018-08-04T03:46:40.703Z,1011.93
2018-08-04T03:47:40.709Z,1011.92
2018-08-04T03:48:40.714Z,1011.96
2018-08-04T03:49:40.712Z,1011.95
2018-08-04T03:50:40.705Z,1011.93
2018-08-04T03:51:40.717Z,1011.94
2018-08-04T03:52:40.700Z,1011.98
2018-08-04T03:53:40.703Z,1011.99
2018-08-04T03:54:40.702Z,1011.98
2018-08-04T03:55:40.702Z,1011.99
2018-08-04T03:56:40.702Z,1012.00
2018-08-04T03:57:40.703Z,1012.00
2018-08-04T03:58:40.707Z,1011.97
2018-08-04T03:59:40.729Z,1012.00
2018-08-04T04:00:40.700Z,1012.02
2018-08-04T04:01:40.693Z,1012.02
2018-08-04T04:02:40.696Z,1011.99
2018-08-04T04:03:40.693Z,1011.99
2018-08-04T04:04:40.703Z,1011.96
2018-08-04T04:05:40.694Z,1011.94
2018-08-04T04:06:40.715Z,1011.89
2018-08-04T04:07:40.694Z,1011.87
2018-08-04T04:08:40.694Z,1011.90
2018-08-04T04:09:40.687Z,1011.90
2018-08-04T04:10:40.692Z,1011.90
2018-08-04T04:11:40.687Z,1011.92
2018-08-04T04:12:40.683Z,1011.92
2018-08-04T04:13:40.687Z,1011.94
2018-08-04T04:14:40.687Z,1011.98
2018-08-04T04:15:40.691Z,1011.99
2018-08-04T04:16:40.697Z,1012.05
2018-08-04T04:17:40.684Z,1012.05
2018-08-04T04:18:40.697Z,1012.03
2018-08-04T04:19:40.705Z,1012.03
2018-08-04T04:20:40.684Z,1012.00
2018-08-04T04:21:40.683Z,1012.01
2018-08-04T04:22:40.684Z,1012.05
2018-08-04T04:23:40.684Z,1012.10
2018-08-04T04:24:40.684Z,1012.06
2018-08-04T04:25:40.681Z,1012.11
2018-08-04T04:26:40.686Z,1012.18
2018-08-04T04:27:40.678Z,1012.24
2018-08-04T04:28:40.679Z,1012.30
2018-08-04T04:29:40.679Z,1012.37
2018-08-04T04:30:40.680Z,1012.36
2018-08-04T04:31:40.684Z,1012.34
2018-08-04T04:32:40.687Z,1012.34
2018-08-04T04:33:40.683Z,1012.33
2018-08-04T04:34:40.677Z,1012.37
2018-08-04T04:35:40.677Z,1012.37
2018-08-04T04:36:40.675Z,1012.40
2018-08-04T04:37:40.677Z,1012.43
2018-08-04T04:38:40.675Z,1012.38
2018-08-04T04:39:40.677Z,1012.36
2018-08-04T04:40:40.674Z,1012.39
2018-08-04T04:41:40.669Z,1012.35
2018-08-04T04:42:40.673Z,1012.42
2018-08-04T04:43:40.672Z,1012.40
2018-08-04T04:44:40.674Z,1012.40
2018-08-04T04:45:40.669Z,1012.39
2018-08-04T04:46:40.676Z,1012.39
2018-08-04T04:47:40.671Z,1012.41
2018-08-04T04:48:40.672Z,1012.40
2018-08-04T04:49:40.671Z,1012.42
2018-08-04T04:50:40.677Z,1012.38
2018-08-04T04:51:40.670Z,1012.41
2018-08-04T04:52:40.667Z,1012.35
2018-08-04T04:53:40.670Z,1012.31
2018-08-04T04:54:40.668Z,1012.26
2018-08-04T04:55:40.666Z,1012.24
2018-08-04T04:56:40.666Z,1012.25
2018-08-04T04:57:40.668Z,1012.28
2018-08-04T04:58:40.670Z,1012.27
2018-08-04T04:59:40.672Z,1012.30
2018-08-04T05:00:40.679Z,1012.30
2018-08-04T05:01:40.667Z,1012.30
2018-08-04T05:02:40.695Z,1012.31
2018-08-04T05:03:40.696Z,1012.30
2018-08-04T05:04:40.663Z,1012.29
2018-08-04T05:05:40.665Z,1012.32
2018-08-04T05:06:40.665Z,1012.30
2018-08-04T05:07:40.665Z,1012.33
2018-08-04T05:08:40.670Z,1012.38
2018-08-04T05:09:40.665Z,1012.37
2018-08-04T05:10:40.660Z,1012.36
2018-08-04T05:11:40.665Z,1012.31
2018-08-04T05:12:40.664Z,1012.28
2018-08-04T05:13:40.664Z,1012.22
2018-08-04T05:14:40.665Z,1012.21
2018-08-04T05:15:40.685Z,1012.19
2018-08-04T05:16:40.670Z,1012.19
2018-08-04T05:17:40.663Z,1012.21
2018-08-04T05:18:40.662Z,1012.22
2018-08-04T05:19:40.663Z,1012.25
2018-08-04T05:20:40.664Z,1012.29
2018-08-04T05:21:40.785Z,1012.32
2018-08-04T05:22:40.662Z,1012.31
2018-08-04T05:23:40.665Z,1012.36
2018-08-04T05:24:40.658Z,1012.37
2018-08-04T05:25:40.660Z,1012.39
2018-08-04T05:26:40.662Z,1012.35
2018-08-04T05:27:40.659Z,1012.39
2018-08-04T05:28:40.666Z,1012.43
2018-08-04T05:29:40.663Z,1012.47
2018-08-04T05:30:40.664Z,1012.47
2018-08-04T05:31:40.663Z,1012.47
2018-08-04T05:32:40.659Z,1012.44
2018-08-04T05:33:40.657Z,1012.45
2018-08-04T05:34:40.663Z,1012.43
2018-08-04T05:35:40.662Z,1012.48
2018-08-04T05:36:40.662Z,1012.49
2018-08-04T05:37:40.661Z,1012.54
2018-08-04T05:38:40.667Z,1012.60
2018-08-04T05:39:40.660Z,1012.56
2018-08-04T05:40:40.666Z,1012.54
2018-08-04T05:41:40.662Z,1012.56
2018-08-04T05:42:40.675Z,1012.52
2018-08-04T05:43:40.662Z,1012.53
2018-08-04T05:44:40.656Z,1012.56
2018-08-04T05:45:40.660Z,1012.53
2018-08-04T05:46:40.660Z,1012.55
2018-08-04T05:47:40.662Z,1012.57
2018-08-04T05:48:40.659Z,1012.56
2018-08-04T05:49:40.668Z,1012.56
2018-08-04T05:50:40.661Z,1012.56
2018-08-04T05:51:40.663Z,1012.58
2018-08-04T05:52:40.672Z,1012.57
2018-08-04T05:53:40.666Z,1012.55
2018-08-04T05:54:40.662Z,1012.53
2018-08-04T05:55:40.660Z,1012.60
2018-08-04T05:56:40.657Z,1012.57
2018-08-04T05:57:40.664Z,1012.57
2018-08-04T05:58:40.660Z,1012.58
2018-08-04T05:59:40.661Z,1012.60
2018-08-04T06:00:40.681Z,1012.56
2018-08-04T06:01:40.662Z,1012.57
2018-08-04T06:02:40.661Z,1012.54
2018-08-04T06:03:40.674Z,1012.52
2018-08-04T06:04:40.665Z,1012.53
2018-08-04T06:05:40.664Z,1012.54
2018-08-04T06:06:40.671Z,1012.56
2018-08-04T06:07:40.665Z,1012.64
2018-08-04T06:08:40.665Z,1012.65
2018-08-04T06:09:40.664Z,1012.66
2018-08-04T06:10:40.665Z,1012.68
2018-08-04T06:11:40.665Z,1012.70
2018-08-04T06:12:40.666Z,1012.64
2018-08-04T06:13:40.665Z,1012.65
2018-08-04T06:14:40.674Z,1012.63
2018-08-04T06:15:40.673Z,1012.67
2018-08-04T06:16:40.682Z,1012.69
2018-08-04T06:17:40.670Z,1012.69
2018-08-04T06:18:40.669Z,1012.72
2018-08-04T06:19:40.669Z,1012.75
2018-08-04T06:20:40.668Z,1012.74
2018-08-04T06:21:40.672Z,1012.76
2018-08-04T06:22:40.673Z,1012.76
2018-08-04T06:23:40.672Z,1012.77
2018-08-04T06:24:40.671Z,1012.76
2018-08-04T06:25:40.675Z,1012.82
2018-08-04T06:26:40.675Z,1012.84
2018-08-04T06:27:40.671Z,1012.79
2018-08-04T06:28:40.685Z,1012.83
2018-08-04T06:29:40.674Z,1012.84
2018-08-04T06:30:40.741Z,1012.87
2018-08-04T06:31:40.677Z,1012.85
2018-08-04T06:32:40.695Z,1012.88
2018-08-04T06:33:40.680Z,1012.90
2018-08-04T06:34:40.682Z,1012.90
2018-08-04T06:35:40.691Z,1012.86
2018-08-04T06:36:40.710Z,1012.87
2018-08-04T06:37:40.689Z,1012.83
2018-08-04T06:38:40.689Z,1012.86
2018-08-04T06:39:40.693Z,1012.85
2018-08-04T06:40:40.690Z,1012.88
2018-08-04T06:41:40.726Z,1012.84
2018-08-04T06:42:40.696Z,1012.88
2018-08-04T06:43:40.697Z,1012.89
2018-08-04T06:44:40.697Z,1012.87
2018-08-04T06:45:40.696Z,1012.85
2018-08-04T06:46:40.707Z,1012.87
2018-08-04T06:47:40.701Z,1012.88
2018-08-04T06:48:40.718Z,1012.88
2018-08-04T06:49:40.705Z,1012.87
2018-08-04T06:50:40.711Z,1012.87
2018-08-04T06:51:40.724Z,1012.92
2018-08-04T06:52:40.717Z,1012.92
2018-08-04T06:53:40.735Z,1012.89
2018-08-04T06:54:40.724Z,1012.91
2018-08-04T06:55:40.743Z,1012.89
2018-08-04T06:56:40.736Z,1012.87
2018-08-04T06:57:40.745Z,1012.89
2018-08-04T06:58:40.737Z,1012.89
2018-08-04T06:59:40.742Z,1012.94
2018-08-04T07:00:40.749Z,1012.92
2018-08-04T07:01:40.746Z,1012.93
2018-08-04T07:02:40.753Z,1012.93
2018-08-04T07:03:40.759Z,1012.92
2018-08-04T07:04:40.752Z,1012.89
2018-08-04T07:05:40.756Z,1012.91
2018-08-04T07:06:40.759Z,1012.90
2018-08-04T07:07:40.763Z,1012.89
2018-08-04T07:08:40.766Z,1012.91
2018-08-04T07:09:40.777Z,1012.92
2018-08-04T07:10:40.771Z,1012.95
2018-08-04T07:11:40.773Z,1012.94
2018-08-04T07:12:40.777Z,1012.93
2018-08-04T07:13:40.792Z,1012.93
2018-08-04T07:14:40.781Z,1012.95
2018-08-04T07:15:40.790Z,1013.01
2018-08-04T07:16:40.787Z,1012.97
2018-08-04T07:17:40.792Z,1012.95
2018-08-04T07:18:40.795Z,1013.02
2018-08-04T07:19:40.802Z,1013.01
2018-08-04T07:20:40.801Z,1013.01
2018-08-04T07:21:40.805Z,1013.06
2018-08-04T07:22:40.807Z,1013.00
2018-08-04T07:23:40.815Z,1013.07
2018-08-04T07:24:40.819Z,1013.05
2018-08-04T07:25:40.823Z,1013.06
2018-08-04T07:26:40.832Z,1013.08
2018-08-04T07:27:40.841Z,1013.05
2018-08-04T07:28:40.840Z,1013.01
2018-08-04T07:29:40.841Z,1013.01
2018-08-04T07:30:40.845Z,1012.98
2018-08-04T07:31:40.886Z,1013.00
2018-08-04T07:32:40.852Z,1013.02
2018-08-04T07:33:40.858Z,1013.01
2018-08-04T07:34:40.863Z,1013.06
2018-08-04T07:35:40.868Z,1013.07
2018-08-04T07:36:40.875Z,1013.09
2018-08-04T07:37:40.880Z,1013.12
2018-08-04T07:38:40.887Z,1013.12
2018-08-04T07:39:40.892Z,1013.13
2018-08-04T07:40:40.899Z,1013.16
2018-08-04T07:41:40.908Z,1013.17
2018-08-04T07:42:40.905Z,1013.16
2018-08-04T07:43:40.912Z,1013.16
2018-08-04T07:44:40.915Z,1013.17
2018-08-04T07:45:40.921Z,1013.16
2018-08-04T07:46:40.928Z,1013.16
2018-08-04T07:47:40.988Z,1013.11
2018-08-04T07:48:40.946Z,1013.22
2018-08-04T07:49:40.941Z,1013.22
2018-08-04T07:50:40.948Z,1013.20
2018-08-04T07:51:40.959Z,1013.22
2018-08-04T07:52:40.957Z,1013.25
2018-08-04T07:53:40.965Z,1013.23
2018-08-04T07:54:40.966Z,1013.27
2018-08-04T07:55:40.976Z,1013.22
2018-08-04T07:56:40.977Z,1013.21
2018-08-04T07:57:40.984Z,1013.22
2018-08-04T07:58:41.004Z,1013.21
2018-08-04T07:59:40.999Z,1013.28
2018-08-04T08:00:41.004Z,1013.25
2018-08-04T08:01:41.019Z,1013.23
2018-08-04T08:02:41.013Z,1013.21
2018-08-04T08:03:41.025Z,1013.19
2018-08-04T08:04:41.028Z,1013.17
2018-08-04T08:05:41.034Z,1013.18
2018-08-04T08:06:41.042Z,1013.17
2018-08-04T08:07:41.048Z,1013.13
2018-08-04T08:08:41.056Z,1013.11
2018-08-04T08:09:41.060Z,1013.14
2018-08-04T08:10:41.170Z,1013.12
2018-08-04T08:11:41.078Z,1013.12
2018-08-04T08:12:41.093Z,1013.16
2018-08-04T08:13:41.092Z,1013.10
2018-08-04T08:14:41.106Z,1013.12
2018-08-04T08:15:41.104Z,1013.14
2018-08-04T08:16:41.109Z,1013.10
2018-08-04T08:17:41.122Z,1013.06
2018-08-04T08:18:41.125Z,1013.12
2018-08-04T08:19:41.134Z,1013.10
2018-08-04T08:20:41.142Z,1013.14
2018-08-04T08:21:41.148Z,1013.14
2018-08-04T08:22:41.155Z,1013.12
2018-08-04T08:23:41.226Z,1013.09
2018-08-04T08:24:41.170Z,1013.09
2018-08-04T08:25:41.181Z,1013.10
2018-08-04T08:26:41.222Z,1013.06
2018-08-04T08:27:41.199Z,1013.06
2018-08-04T08:28:41.234Z,1013.07
2018-08-04T08:29:41.219Z,1013.10
2018-08-04T08:30:43.210Z,1013.08
2018-08-04T08:32:02.256Z,1013.07
2018-08-04T08:32:41.296Z,1013.07
2018-08-04T08:33:41.266Z,1013.04
2018-08-04T08:34:41.305Z,1013.04
2018-08-04T08:35:41.360Z,1013.07
2018-08-04T08:36:41.279Z,1013.05
2018-08-04T08:37:41.288Z,1013.10
2018-08-04T08:41:10.855Z,1013.10
2018-08-04T08:41:44.055Z,1013.14
2018-08-04T08:43:55.651Z,1013.10
2018-08-04T08:44:38.729Z,1013.12
2018-08-04T08:45:39.779Z,1013.04
2018-08-04T08:46:39.253Z,1013.11
2018-08-04T08:47:37.849Z,1013.09
2018-08-04T08:48:38.098Z,1013.08
2018-08-04T08:49:37.918Z,1013.10
2018-08-04T08:50:38.151Z,1013.11
2018-08-04T08:51:37.776Z,1013.14
2018-08-04T08:52:37.852Z,1013.18
2018-08-04T08:53:37.885Z,1013.16
2018-08-04T08:54:58.836Z,1013.13
2018-08-04T08:55:37.805Z,1013.16
2018-08-04T08:56:37.813Z,1013.14
2018-08-04T08:57:37.830Z,1013.18
2018-08-04T08:58:38.586Z,1013.19
2018-08-04T08:59:37.848Z,1013.18
2018-08-04T09:00:37.864Z,1013.15
2018-08-04T09:01:37.867Z,1013.22
2018-08-04T09:02:37.876Z,1013.21
2018-08-04T09:03:37.896Z,1013.21
2018-08-04T09:04:37.900Z,1013.17
2018-08-04T09:05:37.918Z,1013.16
2018-08-04T09:06:39.515Z,1013.21
2018-08-04T09:09:38.684Z,1013.23
2018-08-04T09:10:14.684Z,1013.24
2018-08-04T09:12:06.077Z,1013.25
2018-08-04T09:13:05.968Z,1013.23
2018-08-04T09:14:59.741Z,1013.24
2018-08-04T09:15:59.737Z,1013.17
2018-08-04T09:17:53.872Z,1013.28
2018-08-04T09:18:53.430Z,1013.28
2018-08-04T09:20:47.126Z,1013.28
2018-08-04T09:21:47.088Z,1013.35
2018-08-04T09:23:41.602Z,1013.35
2018-08-04T09:24:40.898Z,1013.31
2018-08-04T09:26:34.869Z,1013.33
2018-08-04T09:27:35.308Z,1013.31
2018-08-04T09:29:28.363Z,1013.31
2018-08-04T09:30:28.325Z,1013.29
2018-08-04T09:32:22.304Z,1013.35
2018-08-04T09:33:22.360Z,1013.34
2018-08-04T09:35:15.866Z,1013.28
2018-08-04T09:36:15.724Z,1013.34
2018-08-04T09:38:10.158Z,1013.32
2018-08-04T09:39:10.021Z,1013.33
2018-08-04T09:41:04.235Z,1013.36
2018-08-04T09:42:05.076Z,1013.33
2018-08-04T09:43:04.370Z,1013.32
2018-08-04T09:44:04.270Z,1013.33
2018-08-04T09:45:04.309Z,1013.33
2018-08-04T09:46:04.933Z,1013.29
2018-08-04T09:47:04.286Z,1013.30
2018-08-04T09:48:04.291Z,1013.24
2018-08-04T09:49:04.325Z,1013.24
2018-08-04T09:50:04.345Z,1013.22
2018-08-04T09:51:04.337Z,1013.21
2018-08-04T09:52:04.375Z,1013.23
2018-08-04T09:53:04.357Z,1013.21
2018-08-04T09:54:04.400Z,1013.20
2018-08-04T09:55:04.391Z,1013.21
2018-08-04T09:56:04.398Z,1013.20
2018-08-04T09:57:04.412Z,1013.23
2018-08-04T09:58:04.419Z,1013.19
2018-08-04T09:59:04.433Z,1013.17
2018-08-04T10:00:04.455Z,1013.23
2018-08-04T10:01:05.438Z,1013.18
2018-08-04T10:02:04.520Z,1013.20
2018-08-04T10:03:04.503Z,1013.18
2018-08-04T10:04:04.499Z,1013.24
2018-08-04T10:05:04.561Z,1013.20
2018-08-04T10:06:04.532Z,1013.19
2018-08-04T10:07:04.554Z,1013.19
2018-08-04T10:08:04.551Z,1013.18
2018-08-04T10:09:04.609Z,1013.14
2018-08-04T10:10:04.600Z,1013.18
2018-08-04T10:11:04.606Z,1013.19
2018-08-04T10:12:04.635Z,1013.17
2018-08-04T10:13:04.635Z,1013.19
2018-08-04T10:14:04.663Z,1013.18
2018-08-04T10:15:04.654Z,1013.20
2018-08-04T10:16:04.652Z,1013.20
2018-08-04T10:17:04.676Z,1013.24
2018-08-04T10:18:04.676Z,1013.17
2018-08-04T10:19:04.694Z,1013.18
2018-08-04T10:20:04.720Z,1013.16
2018-08-04T10:21:05.458Z,1013.17
2018-08-04T10:22:06.455Z,1013.19
2018-08-04T10:23:04.746Z,1013.13
2018-08-04T10:24:04.772Z,1013.14
2018-08-04T10:25:04.816Z,1013.06
2018-08-04T10:26:04.880Z,1013.12
2018-08-04T10:27:04.828Z,1013.12
2018-08-04T10:28:04.843Z,1013.13
2018-08-04T10:29:04.833Z,1013.11
2018-08-04T10:30:04.849Z,1013.07
2018-08-04T10:31:04.933Z,1013.08
2018-08-04T10:32:05.022Z,1013.04
2018-08-04T10:33:04.882Z,1013.06
2018-08-04T10:34:04.914Z,1013.04
2018-08-04T10:35:04.912Z,1013.06
2018-08-04T10:36:04.923Z,1013.08
2018-08-04T10:37:04.962Z,1013.09
2018-08-04T10:38:04.965Z,1013.09
2018-08-04T10:39:04.998Z,1013.10
2018-08-04T10:40:05.012Z,1013.09
2018-08-04T10:41:05.010Z,1013.10
2018-08-04T10:42:05.007Z,1013.11
2018-08-04T10:43:05.042Z,1013.09
2018-08-04T10:44:05.088Z,1013.12
2018-08-04T10:45:05.053Z,1013.11
2018-08-04T10:46:05.061Z,1013.07
2018-08-04T10:47:05.079Z,1013.13
2018-08-04T10:48:05.091Z,1013.06
2018-08-04T10:49:05.121Z,1013.03
2018-08-04T10:50:05.157Z,1013.02
2018-08-04T10:51:05.157Z,1012.98
2018-08-04T10:52:05.164Z,1012.96
2018-08-04T10:53:05.177Z,1012.98
2018-08-04T10:54:05.206Z,1012.95
2018-08-04T10:55:05.190Z,1012.96
2018-08-04T10:56:05.211Z,1012.98
2018-08-04T10:57:05.251Z,1012.94
2018-08-04T10:58:05.223Z,1012.93
2018-08-04T10:59:05.259Z,1013.00
2018-08-04T11:00:05.252Z,1012.93
2018-08-04T11:01:05.268Z,1012.94
2018-08-04T11:02:05.280Z,1012.95
2018-08-04T11:03:05.298Z,1012.91
2018-08-04T11:04:05.313Z,1012.93
2018-08-04T11:05:05.322Z,1012.94
2018-08-04T11:06:05.344Z,1012.90
2018-08-04T11:07:05.351Z,1012.93
2018-08-04T11:08:05.400Z,1012.92
2018-08-04T11:09:05.381Z,1012.90
2018-08-04T11:10:05.400Z,1012.86
2018-08-04T11:11:05.412Z,1012.89
2018-08-04T11:12:05.422Z,1012.91
2018-08-04T11:13:05.452Z,1012.91
2018-08-04T11:14:05.454Z,1012.95
2018-08-04T11:15:05.474Z,1012.94
2018-08-04T11:16:05.477Z,1012.92
2018-08-04T11:17:05.502Z,1012.89
2018-08-04T11:18:05.576Z,1012.84
2018-08-04T11:19:05.517Z,1012.87
2018-08-04T11:20:05.536Z,1012.84
2018-08-04T11:21:05.559Z,1012.86
2018-08-04T11:22:05.566Z,1012.87
2018-08-04T11:23:05.604Z,1012.82
2018-08-04T11:24:05.615Z,1012.81
2018-08-04T11:25:05.617Z,1012.76
2018-08-04T11:26:05.627Z,1012.77
2018-08-04T11:27:05.665Z,1012.78
2018-08-04T11:28:05.691Z,1012.79
2018-08-04T11:29:05.659Z,1012.81
2018-08-04T11:30:05.701Z,1012.74
2018-08-04T11:31:05.700Z,1012.81
2018-08-04T11:32:05.736Z,1012.74
2018-08-04T11:33:05.718Z,1012.78
2018-08-04T11:34:05.728Z,1012.79
2018-08-04T11:35:05.788Z,1012.81
2018-08-04T11:36:05.794Z,1012.81
2018-08-04T11:37:05.800Z,1012.82
2018-08-04T11:38:05.813Z,1012.77
2018-08-04T11:39:05.807Z,1012.80
2018-08-04T11:40:05.810Z,1012.79
2018-08-04T11:41:05.832Z,1012.81
2018-08-04T11:42:05.856Z,1012.77
2018-08-04T11:43:05.858Z,1012.80
2018-08-04T11:44:05.869Z,1012.79
2018-08-04T11:45:05.955Z,1012.77
2018-08-04T11:46:05.902Z,1012.79
2018-08-04T11:47:05.916Z,1012.80
2018-08-04T11:48:05.941Z,1012.78
2018-08-04T11:49:05.940Z,1012.83
2018-08-04T11:50:05.977Z,1012.78
2018-08-04T11:51:05.971Z,1012.81
2018-08-04T11:52:05.992Z,1012.77
2018-08-04T11:53:05.991Z,1012.81
2018-08-04T11:54:06.011Z,1012.77
2018-08-04T11:55:06.018Z,1012.76
2018-08-04T11:56:06.033Z,1012.73
2018-08-04T11:57:06.044Z,1012.73
2018-08-04T11:58:06.134Z,1012.68
2018-08-04T11:59:06.072Z,1012.71
2018-08-04T12:00:06.089Z,1012.67
2018-08-04T12:01:06.104Z,1012.72
2018-08-04T12:02:06.145Z,1012.69
2018-08-04T12:03:06.126Z,1012.77
2018-08-04T12:04:06.156Z,1012.75
2018-08-04T12:05:06.160Z,1012.77
2018-08-04T12:06:06.177Z,1012.75
2018-08-04T12:07:06.192Z,1012.73
2018-08-04T12:08:06.228Z,1012.70
2018-08-04T12:09:06.209Z,1012.68
2018-08-04T12:10:06.221Z,1012.64
2018-08-04T12:11:06.318Z,1012.64
2018-08-04T12:12:06.250Z,1012.72
2018-08-04T12:13:06.263Z,1012.70
2018-08-04T12:14:06.275Z,1012.67
2018-08-04T12:15:06.288Z,1012.63
2018-08-04T12:16:06.305Z,1012.62
2018-08-04T12:17:06.324Z,1012.57
2018-08-04T12:18:06.397Z,1012.57
2018-08-04T12:19:06.343Z,1012.57
2018-08-04T12:20:06.369Z,1012.60
2018-08-04T12:21:06.378Z,1012.58